sensor_id;sensor_type;location;lat;lon;timestamp;P1;durP1;ratioP1;P2;durP2;ratioP2
14874;SDS011;7529;48.170;17.138;2022-12-10T00:02:45;223.93;;;213.68;;
14874;SDS011;7529;48.170;17.138;2022-12-10T00:06:57;202.15;;;192.60;;
14874;SDS011;7529;48.170;17.138;2022-12-10T00:11:09;206.32;;;196.63;;
14874;SDS011;7529;48.170;17.138;2022-12-10T00:15:21;206.23;;;196.63;;
14874;SDS011;7529;48.170;17.138;2022-12-10T00:19:32;179.52;;;171.05;;
14874;SDS011;7529;48.170;17.138;2022-12-10T00:23:45;198.70;;;189.02;;
14874;SDS011;7529;48.170;17.138;2022-12-10T00:27:57;197.23;;;188.15;;
14874;SDS011;7529;48.170;17.138;2022-12-10T00:32:08;200.52;;;191.13;;
14874;SDS011;7529;48.170;17.138;2022-12-10T00:36:22;169.32;;;161.65;;
14874;SDS011;7529;48.170;17.138;2022-12-10T00:40:36;167.98;;;159.98;;
14874;SDS011;7529;48.170;17.138;2022-12-10T00:44:48;190.10;;;180.98;;
14874;SDS011;7529;48.170;17.138;2022-12-10T00:49:00;155.50;;;148.18;;
14874;SDS011;7529;48.170;17.138;2022-12-10T00:53:11;132.75;;;126.28;;
14874;SDS011;7529;48.170;17.138;2022-12-10T00:57:23;149.55;;;142.57;;
14874;SDS011;7529;48.170;17.138;2022-12-10T01:01:35;110.25;;;104.93;;
14874;SDS011;7529;48.170;17.138;2022-12-10T01:05:48;132.77;;;126.43;;
14874;SDS011;7529;48.170;17.138;2022-12-10T01:10:00;116.70;;;111.10;;
14874;SDS011;7529;48.170;17.138;2022-12-10T01:14:15;119.28;;;113.30;;
14874;SDS011;7529;48.170;17.138;2022-12-10T01:18:31;132.23;;;126.03;;
14874;SDS011;7529;48.170;17.138;2022-12-10T01:22:43;156.80;;;149.00;;
14874;SDS011;7529;48.170;17.138;2022-12-10T01:26:55;119.03;;;113.05;;
14874;SDS011;7529;48.170;17.138;2022-12-10T01:31:11;127.85;;;121.70;;
14874;SDS011;7529;48.170;17.138;2022-12-10T01:35:26;147.27;;;140.15;;
14874;SDS011;7529;48.170;17.138;2022-12-10T01:39:37;134.55;;;128.20;;
14874;SDS011;7529;48.170;17.138;2022-12-10T01:44:00;138.52;;;131.88;;
14874;SDS011;7529;48.170;17.138;2022-12-10T01:48:13;108.68;;;103.38;;
14874;SDS011;7529;48.170;17.138;2022-12-10T01:52:24;125.28;;;119.22;;
14874;SDS011;7529;48.170;17.138;2022-12-10T01:56:37;125.10;;;119.22;;
14874;SDS011;7529;48.170;17.138;2022-12-10T02:00:54;98.70;;;93.72;;
14874;SDS011;7529;48.170;17.138;2022-12-10T02:05:17;102.40;;;97.43;;
14874;SDS011;7529;48.170;17.138;2022-12-10T02:09:43;121.22;;;115.25;;
14874;SDS011;7529;48.170;17.138;2022-12-10T02:14:20;98.38;;;93.57;;
14874;SDS011;7529;48.170;17.138;2022-12-10T02:18:40;134.57;;;128.23;;
14874;SDS011;7529;48.170;17.138;2022-12-10T02:23:05;116.82;;;111.10;;
14874;SDS011;7529;48.170;17.138;2022-12-10T02:32:09;90.55;;;85.95;;
14874;SDS011;7529;48.170;17.138;2022-12-10T02:36:46;102.88;;;97.80;;
14874;SDS011;7529;48.170;17.138;2022-12-10T02:41:00;115.57;;;109.90;;
14874;SDS011;7529;48.170;17.138;2022-12-10T02:45:17;99.97;;;95.22;;
14874;SDS011;7529;48.170;17.138;2022-12-10T02:49:30;84.20;;;80.00;;
14874;SDS011;7529;48.170;17.138;2022-12-10T02:53:45;84.50;;;79.95;;
14874;SDS011;7529;48.170;17.138;2022-12-10T02:58:03;91.68;;;87.20;;
14874;SDS011;7529;48.170;17.138;2022-12-10T03:07:01;98.88;;;93.95;;
14874;SDS011;7529;48.170;17.138;2022-12-10T03:11:18;88.05;;;83.32;;
14874;SDS011;7529;48.170;17.138;2022-12-10T03:15:33;67.93;;;64.13;;
14874;SDS011;7529;48.170;17.138;2022-12-10T03:19:47;81.65;;;77.32;;
14874;SDS011;7529;48.170;17.138;2022-12-10T03:23:59;96.18;;;90.97;;
14874;SDS011;7529;48.170;17.138;2022-12-10T03:28:11;94.97;;;89.95;;
14874;SDS011;7529;48.170;17.138;2022-12-10T03:32:24;102.13;;;97.00;;
14874;SDS011;7529;48.170;17.138;2022-12-10T03:36:37;100.05;;;94.82;;
14874;SDS011;7529;48.170;17.138;2022-12-10T03:40:49;75.00;;;70.60;;
14874;SDS011;7529;48.170;17.138;2022-12-10T03:45:01;76.43;;;71.97;;
14874;SDS011;7529;48.170;17.138;2022-12-10T03:49:13;70.72;;;66.65;;
14874;SDS011;7529;48.170;17.138;2022-12-10T03:53:24;69.72;;;65.75;;
14874;SDS011;7529;48.170;17.138;2022-12-10T03:57:38;68.60;;;64.65;;
14874;SDS011;7529;48.170;17.138;2022-12-10T04:01:50;77.03;;;73.03;;
14874;SDS011;7529;48.170;17.138;2022-12-10T04:06:02;77.50;;;73.47;;
14874;SDS011;7529;48.170;17.138;2022-12-10T04:10:15;82.15;;;77.65;;
14874;SDS011;7529;48.170;17.138;2022-12-10T04:14:26;84.13;;;79.55;;
14874;SDS011;7529;48.170;17.138;2022-12-10T04:19:03;68.80;;;64.88;;
14874;SDS011;7529;48.170;17.138;2022-12-10T04:23:17;85.00;;;80.45;;
14874;SDS011;7529;48.170;17.138;2022-12-10T04:27:46;73.57;;;69.50;;
14874;SDS011;7529;48.170;17.138;2022-12-10T04:31:58;66.70;;;62.70;;
14874;SDS011;7529;48.170;17.138;2022-12-10T04:36:10;75.53;;;71.53;;
14874;SDS011;7529;48.170;17.138;2022-12-10T04:40:21;70.28;;;66.55;;
14874;SDS011;7529;48.170;17.138;2022-12-10T04:44:33;69.53;;;65.60;;
14874;SDS011;7529;48.170;17.138;2022-12-10T04:48:45;63.47;;;60.05;;
14874;SDS011;7529;48.170;17.138;2022-12-10T04:52:56;60.60;;;57.05;;
14874;SDS011;7529;48.170;17.138;2022-12-10T04:57:08;52.25;;;49.13;;
14874;SDS011;7529;48.170;17.138;2022-12-10T05:01:21;51.83;;;48.75;;
14874;SDS011;7529;48.170;17.138;2022-12-10T05:05:33;51.58;;;48.60;;
14874;SDS011;7529;48.170;17.138;2022-12-10T05:09:45;60.80;;;57.42;;
14874;SDS011;7529;48.170;17.138;2022-12-10T05:13:57;72.30;;;68.20;;
14874;SDS011;7529;48.170;17.138;2022-12-10T05:18:09;72.47;;;68.80;;
14874;SDS011;7529;48.170;17.138;2022-12-10T05:22:21;66.60;;;63.03;;
14874;SDS011;7529;48.170;17.138;2022-12-10T05:26:51;78.07;;;74.05;;
14874;SDS011;7529;48.170;17.138;2022-12-10T05:31:04;63.53;;;60.13;;
14874;SDS011;7529;48.170;17.138;2022-12-10T05:35:16;61.33;;;57.83;;
14874;SDS011;7529;48.170;17.138;2022-12-10T05:39:27;59.92;;;56.55;;
14874;SDS011;7529;48.170;17.138;2022-12-10T05:43:39;62.00;;;58.60;;
14874;SDS011;7529;48.170;17.138;2022-12-10T05:47:51;57.63;;;54.38;;
14874;SDS011;7529;48.170;17.138;2022-12-10T05:52:02;64.15;;;60.50;;
14874;SDS011;7529;48.170;17.138;2022-12-10T05:56:15;81.88;;;77.35;;
14874;SDS011;7529;48.170;17.138;2022-12-10T06:00:30;75.88;;;71.78;;
14874;SDS011;7529;48.170;17.138;2022-12-10T06:04:42;75.05;;;71.05;;
14874;SDS011;7529;48.170;17.138;2022-12-10T06:08:55;68.30;;;64.50;;
14874;SDS011;7529;48.170;17.138;2022-12-10T06:13:07;65.55;;;62.00;;
14874;SDS011;7529;48.170;17.138;2022-12-10T06:17:18;70.28;;;66.45;;
14874;SDS011;7529;48.170;17.138;2022-12-10T06:21:30;68.00;;;64.32;;
14874;SDS011;7529;48.170;17.138;2022-12-10T06:25:41;52.47;;;49.28;;
14874;SDS011;7529;48.170;17.138;2022-12-10T06:29:53;53.28;;;49.88;;
14874;SDS011;7529;48.170;17.138;2022-12-10T06:34:04;44.75;;;41.75;;
14874;SDS011;7529;48.170;17.138;2022-12-10T06:38:16;47.67;;;44.92;;
14874;SDS011;7529;48.170;17.138;2022-12-10T06:42:29;43.85;;;41.17;;
14874;SDS011;7529;48.170;17.138;2022-12-10T06:46:40;41.70;;;39.20;;
14874;SDS011;7529;48.170;17.138;2022-12-10T06:50:52;43.00;;;40.42;;
14874;SDS011;7529;48.170;17.138;2022-12-10T06:55:05;41.15;;;38.50;;
14874;SDS011;7529;48.170;17.138;2022-12-10T06:59:17;40.80;;;38.05;;
14874;SDS011;7529;48.170;17.138;2022-12-10T07:03:30;41.92;;;39.33;;
14874;SDS011;7529;48.170;17.138;2022-12-10T07:07:42;45.47;;;42.30;;
14874;SDS011;7529;48.170;17.138;2022-12-10T07:11:54;47.83;;;44.83;;
14874;SDS011;7529;48.170;17.138;2022-12-10T07:16:16;47.75;;;44.55;;
14874;SDS011;7529;48.170;17.138;2022-12-10T07:20:32;50.92;;;47.60;;
14874;SDS011;7529;48.170;17.138;2022-12-10T07:24:44;48.50;;;45.25;;
14874;SDS011;7529;48.170;17.138;2022-12-10T07:28:55;51.35;;;48.17;;
14874;SDS011;7529;48.170;17.138;2022-12-10T07:33:08;52.33;;;48.95;;
14874;SDS011;7529;48.170;17.138;2022-12-10T07:37:19;54.35;;;51.08;;
14874;SDS011;7529;48.170;17.138;2022-12-10T07:41:31;50.72;;;47.35;;
14874;SDS011;7529;48.170;17.138;2022-12-10T07:45:43;49.25;;;46.20;;
14874;SDS011;7529;48.170;17.138;2022-12-10T07:49:54;46.83;;;43.97;;
14874;SDS011;7529;48.170;17.138;2022-12-10T07:54:06;50.50;;;47.17;;
14874;SDS011;7529;48.170;17.138;2022-12-10T07:58:18;47.78;;;44.95;;
14874;SDS011;7529;48.170;17.138;2022-12-10T08:02:30;43.83;;;41.15;;
14874;SDS011;7529;48.170;17.138;2022-12-10T08:06:42;42.35;;;39.53;;
14874;SDS011;7529;48.170;17.138;2022-12-10T08:10:54;43.80;;;40.90;;
14874;SDS011;7529;48.170;17.138;2022-12-10T08:15:05;45.72;;;42.95;;
14874;SDS011;7529;48.170;17.138;2022-12-10T08:19:17;42.75;;;40.00;;
14874;SDS011;7529;48.170;17.138;2022-12-10T08:23:28;35.50;;;33.20;;
14874;SDS011;7529;48.170;17.138;2022-12-10T08:27:40;37.88;;;35.22;;
14874;SDS011;7529;48.170;17.138;2022-12-10T08:31:52;33.33;;;31.10;;
14874;SDS011;7529;48.170;17.138;2022-12-10T08:36:04;40.67;;;37.80;;
14874;SDS011;7529;48.170;17.138;2022-12-10T08:40:16;37.33;;;34.47;;
14874;SDS011;7529;48.170;17.138;2022-12-10T08:44:28;39.80;;;37.08;;
14874;SDS011;7529;48.170;17.138;2022-12-10T08:48:40;36.58;;;34.28;;
14874;SDS011;7529;48.170;17.138;2022-12-10T08:52:53;39.22;;;36.85;;
14874;SDS011;7529;48.170;17.138;2022-12-10T08:57:04;33.60;;;31.42;;
14874;SDS011;7529;48.170;17.138;2022-12-10T09:01:16;36.92;;;34.53;;
14874;SDS011;7529;48.170;17.138;2022-12-10T09:05:29;31.45;;;29.48;;
14874;SDS011;7529;48.170;17.138;2022-12-10T09:09:40;31.77;;;29.63;;
14874;SDS011;7529;48.170;17.138;2022-12-10T09:13:52;19.35;;;17.80;;
14874;SDS011;7529;48.170;17.138;2022-12-10T09:18:05;21.60;;;20.00;;
14874;SDS011;7529;48.170;17.138;2022-12-10T09:22:17;15.38;;;14.38;;
14874;SDS011;7529;48.170;17.138;2022-12-10T09:26:28;16.15;;;15.05;;
14874;SDS011;7529;48.170;17.138;2022-12-10T09:30:40;17.77;;;16.48;;
14874;SDS011;7529;48.170;17.138;2022-12-10T09:34:52;18.17;;;16.85;;
14874;SDS011;7529;48.170;17.138;2022-12-10T09:39:04;17.52;;;16.33;;
14874;SDS011;7529;48.170;17.138;2022-12-10T09:43:23;23.88;;;21.80;;
14874;SDS011;7529;48.170;17.138;2022-12-10T09:52:13;18.92;;;17.48;;
14874;SDS011;7529;48.170;17.138;2022-12-10T09:56:36;19.25;;;17.70;;
14874;SDS011;7529;48.170;17.138;2022-12-10T10:00:54;17.80;;;16.60;;
14874;SDS011;7529;48.170;17.138;2022-12-10T10:05:11;20.02;;;18.40;;
14874;SDS011;7529;48.170;17.138;2022-12-10T10:09:30;19.35;;;17.95;;
14874;SDS011;7529;48.170;17.138;2022-12-10T10:13:53;18.63;;;17.38;;
14874;SDS011;7529;48.170;17.138;2022-12-10T10:18:21;18.38;;;17.13;;
14874;SDS011;7529;48.170;17.138;2022-12-10T10:22:53;29.63;;;27.42;;
14874;SDS011;7529;48.170;17.138;2022-12-10T10:27:11;20.98;;;19.35;;
14874;SDS011;7529;48.170;17.138;2022-12-10T10:31:26;20.70;;;19.02;;
14874;SDS011;7529;48.170;17.138;2022-12-10T10:39:59;32.78;;;30.17;;
14874;SDS011;7529;48.170;17.138;2022-12-10T10:44:20;37.13;;;34.65;;
14874;SDS011;7529;48.170;17.138;2022-12-10T10:48:33;34.67;;;32.17;;
14874;SDS011;7529;48.170;17.138;2022-12-10T10:52:45;42.92;;;40.10;;
14874;SDS011;7529;48.170;17.138;2022-12-10T10:56:57;37.47;;;34.65;;
14874;SDS011;7529;48.170;17.138;2022-12-10T11:01:08;33.95;;;31.30;;
14874;SDS011;7529;48.170;17.138;2022-12-10T11:05:21;29.63;;;27.08;;
14874;SDS011;7529;48.170;17.138;2022-12-10T11:09:37;19.33;;;17.73;;
14874;SDS011;7529;48.170;17.138;2022-12-10T11:13:48;18.35;;;17.08;;
14874;SDS011;7529;48.170;17.138;2022-12-10T11:18:00;18.70;;;17.40;;
14874;SDS011;7529;48.170;17.138;2022-12-10T11:22:19;18.13;;;16.83;;
14874;SDS011;7529;48.170;17.138;2022-12-10T11:30:57;19.25;;;17.65;;
14874;SDS011;7529;48.170;17.138;2022-12-10T11:40:05;20.05;;;18.55;;
14874;SDS011;7529;48.170;17.138;2022-12-10T11:44:36;27.25;;;25.17;;
14874;SDS011;7529;48.170;17.138;2022-12-10T12:16:11;36.33;;;33.55;;
14874;SDS011;7529;48.170;17.138;2022-12-10T12:20:33;35.17;;;32.50;;
14874;SDS011;7529;48.170;17.138;2022-12-10T12:24:52;33.42;;;31.17;;
14874;SDS011;7529;48.170;17.138;2022-12-10T12:33:42;35.30;;;32.67;;
14874;SDS011;7529;48.170;17.138;2022-12-10T12:42:30;35.20;;;32.25;;
14874;SDS011;7529;48.170;17.138;2022-12-10T12:46:47;32.45;;;30.10;;
14874;SDS011;7529;48.170;17.138;2022-12-10T12:59:57;36.00;;;33.30;;
14874;SDS011;7529;48.170;17.138;2022-12-10T13:04:19;39.53;;;36.33;;
14874;SDS011;7529;48.170;17.138;2022-12-10T13:08:31;33.80;;;31.38;;
14874;SDS011;7529;48.170;17.138;2022-12-10T13:12:47;19.13;;;17.73;;
14874;SDS011;7529;48.170;17.138;2022-12-10T13:26:01;30.65;;;28.38;;
14874;SDS011;7529;48.170;17.138;2022-12-10T13:34:40;37.65;;;35.03;;
14874;SDS011;7529;48.170;17.138;2022-12-10T13:38:56;42.08;;;39.13;;
14874;SDS011;7529;48.170;17.138;2022-12-10T13:43:35;35.13;;;32.60;;
14874;SDS011;7529;48.170;17.138;2022-12-10T14:02:21;58.80;;;54.78;;
14874;SDS011;7529;48.170;17.138;2022-12-10T14:06:55;51.88;;;48.13;;
14874;SDS011;7529;48.170;17.138;2022-12-10T14:11:18;51.65;;;48.45;;
14874;SDS011;7529;48.170;17.138;2022-12-10T14:15:34;57.95;;;54.42;;
14874;SDS011;7529;48.170;17.138;2022-12-10T14:19:47;53.95;;;50.60;;
14874;SDS011;7529;48.170;17.138;2022-12-10T14:24:01;53.60;;;50.17;;
14874;SDS011;7529;48.170;17.138;2022-12-10T14:28:14;54.30;;;50.47;;
14874;SDS011;7529;48.170;17.138;2022-12-10T14:32:29;52.60;;;49.22;;
14874;SDS011;7529;48.170;17.138;2022-12-10T14:36:47;53.55;;;50.13;;
14874;SDS011;7529;48.170;17.138;2022-12-10T14:41:00;54.22;;;50.58;;
14874;SDS011;7529;48.170;17.138;2022-12-10T14:45:13;51.67;;;48.45;;
14874;SDS011;7529;48.170;17.138;2022-12-10T14:49:26;55.67;;;52.33;;
14874;SDS011;7529;48.170;17.138;2022-12-10T14:53:38;51.40;;;47.67;;
14874;SDS011;7529;48.170;17.138;2022-12-10T15:02:10;59.17;;;55.38;;
14874;SDS011;7529;48.170;17.138;2022-12-10T15:06:34;49.22;;;45.95;;
14874;SDS011;7529;48.170;17.138;2022-12-10T15:10:49;53.65;;;50.13;;
14874;SDS011;7529;48.170;17.138;2022-12-10T15:15:04;50.83;;;46.97;;
14874;SDS011;7529;48.170;17.138;2022-12-10T15:23:38;55.95;;;52.50;;
14874;SDS011;7529;48.170;17.138;2022-12-10T15:27:55;56.55;;;52.25;;
14874;SDS011;7529;48.170;17.138;2022-12-10T15:32:15;55.88;;;52.17;;
14874;SDS011;7529;48.170;17.138;2022-12-10T15:36:43;54.65;;;50.92;;
14874;SDS011;7529;48.170;17.138;2022-12-10T15:41:10;52.28;;;49.00;;
14874;SDS011;7529;48.170;17.138;2022-12-10T15:45:42;50.53;;;47.28;;
14874;SDS011;7529;48.170;17.138;2022-12-10T15:49:54;59.80;;;55.67;;
14874;SDS011;7529;48.170;17.138;2022-12-10T15:54:22;55.65;;;51.72;;
14874;SDS011;7529;48.170;17.138;2022-12-10T15:58:39;57.17;;;53.47;;
14874;SDS011;7529;48.170;17.138;2022-12-10T16:02:56;57.20;;;53.72;;
14874;SDS011;7529;48.170;17.138;2022-12-10T16:07:15;51.22;;;47.50;;
14874;SDS011;7529;48.170;17.138;2022-12-10T16:11:28;57.67;;;53.97;;
14874;SDS011;7529;48.170;17.138;2022-12-10T16:15:41;56.53;;;52.63;;
14874;SDS011;7529;48.170;17.138;2022-12-10T16:19:59;58.92;;;55.00;;
14874;SDS011;7529;48.170;17.138;2022-12-10T16:24:19;54.75;;;51.35;;
14874;SDS011;7529;48.170;17.138;2022-12-10T16:28:31;59.22;;;55.42;;
14874;SDS011;7529;48.170;17.138;2022-12-10T16:32:43;56.25;;;52.65;;
14874;SDS011;7529;48.170;17.138;2022-12-10T16:36:54;58.72;;;54.78;;
14874;SDS011;7529;48.170;17.138;2022-12-10T16:41:17;60.28;;;56.35;;
14874;SDS011;7529;48.170;17.138;2022-12-10T16:45:31;57.05;;;53.35;;
14874;SDS011;7529;48.170;17.138;2022-12-10T16:49:45;60.30;;;56.30;;
14874;SDS011;7529;48.170;17.138;2022-12-10T16:53:57;59.45;;;55.28;;
14874;SDS011;7529;48.170;17.138;2022-12-10T16:58:09;57.85;;;53.80;;
14874;SDS011;7529;48.170;17.138;2022-12-10T17:02:23;61.95;;;57.58;;
14874;SDS011;7529;48.170;17.138;2022-12-10T17:06:35;61.50;;;57.05;;
14874;SDS011;7529;48.170;17.138;2022-12-10T17:10:47;57.15;;;52.90;;
14874;SDS011;7529;48.170;17.138;2022-12-10T17:15:18;49.28;;;45.50;;
14874;SDS011;7529;48.170;17.138;2022-12-10T17:19:30;61.35;;;57.33;;
14874;SDS011;7529;48.170;17.138;2022-12-10T17:23:46;63.50;;;58.90;;
14874;SDS011;7529;48.170;17.138;2022-12-10T17:27:57;58.33;;;53.55;;
14874;SDS011;7529;48.170;17.138;2022-12-10T17:32:11;55.72;;;51.53;;
14874;SDS011;7529;48.170;17.138;2022-12-10T17:36:24;60.72;;;56.38;;
14874;SDS011;7529;48.170;17.138;2022-12-10T17:40:35;62.92;;;58.47;;
14874;SDS011;7529;48.170;17.138;2022-12-10T17:44:47;64.35;;;59.72;;
14874;SDS011;7529;48.170;17.138;2022-12-10T17:48:58;56.65;;;52.65;;
14874;SDS011;7529;48.170;17.138;2022-12-10T17:53:12;58.40;;;54.28;;
14874;SDS011;7529;48.170;17.138;2022-12-10T17:57:26;66.40;;;61.88;;
14874;SDS011;7529;48.170;17.138;2022-12-10T18:01:37;68.70;;;64.03;;
14874;SDS011;7529;48.170;17.138;2022-12-10T18:05:49;70.68;;;65.50;;
14874;SDS011;7529;48.170;17.138;2022-12-10T18:10:05;62.75;;;58.28;;
14874;SDS011;7529;48.170;17.138;2022-12-10T18:14:23;164.60;;;148.75;;
14874;SDS011;7529;48.170;17.138;2022-12-10T18:18:34;72.97;;;68.18;;
14874;SDS011;7529;48.170;17.138;2022-12-10T18:22:46;70.60;;;65.93;;
14874;SDS011;7529;48.170;17.138;2022-12-10T18:26:58;71.47;;;66.88;;
14874;SDS011;7529;48.170;17.138;2022-12-10T18:31:14;66.85;;;62.15;;
14874;SDS011;7529;48.170;17.138;2022-12-10T18:35:28;72.75;;;67.95;;
14874;SDS011;7529;48.170;17.138;2022-12-10T18:39:39;71.93;;;66.82;;
14874;SDS011;7529;48.170;17.138;2022-12-10T18:43:51;62.33;;;57.40;;
14874;SDS011;7529;48.170;17.138;2022-12-10T18:48:03;58.65;;;54.33;;
14874;SDS011;7529;48.170;17.138;2022-12-10T18:52:15;63.92;;;59.17;;
14874;SDS011;7529;48.170;17.138;2022-12-10T18:56:27;64.00;;;59.10;;
14874;SDS011;7529;48.170;17.138;2022-12-10T19:00:42;69.43;;;64.55;;
14874;SDS011;7529;48.170;17.138;2022-12-10T19:04:53;65.95;;;61.28;;
14874;SDS011;7529;48.170;17.138;2022-12-10T19:09:08;64.32;;;59.95;;
14874;SDS011;7529;48.170;17.138;2022-12-10T19:13:25;57.67;;;53.47;;
14874;SDS011;7529;48.170;17.138;2022-12-10T19:17:37;68.15;;;63.30;;
14874;SDS011;7529;48.170;17.138;2022-12-10T19:21:48;60.15;;;55.53;;
14874;SDS011;7529;48.170;17.138;2022-12-10T19:26:00;73.55;;;68.85;;
14874;SDS011;7529;48.170;17.138;2022-12-10T19:30:15;60.53;;;56.10;;
14874;SDS011;7529;48.170;17.138;2022-12-10T19:34:31;59.38;;;55.47;;
14874;SDS011;7529;48.170;17.138;2022-12-10T19:38:48;59.92;;;55.45;;
14874;SDS011;7529;48.170;17.138;2022-12-10T19:43:00;53.67;;;49.78;;
14874;SDS011;7529;48.170;17.138;2022-12-10T19:47:15;55.50;;;51.38;;
14874;SDS011;7529;48.170;17.138;2022-12-10T19:51:27;52.45;;;48.92;;
14874;SDS011;7529;48.170;17.138;2022-12-10T19:55:39;57.08;;;53.65;;
14874;SDS011;7529;48.170;17.138;2022-12-10T19:59:50;57.28;;;53.33;;
14874;SDS011;7529;48.170;17.138;2022-12-10T20:04:02;52.15;;;48.65;;
14874;SDS011;7529;48.170;17.138;2022-12-10T20:08:13;50.92;;;47.42;;
14874;SDS011;7529;48.170;17.138;2022-12-10T20:12:25;48.85;;;45.58;;
14874;SDS011;7529;48.170;17.138;2022-12-10T20:16:38;46.85;;;43.67;;
14874;SDS011;7529;48.170;17.138;2022-12-10T20:20:50;47.55;;;44.33;;
14874;SDS011;7529;48.170;17.138;2022-12-10T20:25:02;49.33;;;45.58;;
14874;SDS011;7529;48.170;17.138;2022-12-10T20:29:17;51.28;;;47.80;;
14874;SDS011;7529;48.170;17.138;2022-12-10T20:33:33;46.25;;;43.15;;
14874;SDS011;7529;48.170;17.138;2022-12-10T20:37:44;39.63;;;36.72;;
14874;SDS011;7529;48.170;17.138;2022-12-10T20:41:57;46.42;;;43.35;;
14874;SDS011;7529;48.170;17.138;2022-12-10T20:46:13;43.97;;;40.85;;
14874;SDS011;7529;48.170;17.138;2022-12-10T20:50:25;42.17;;;39.35;;
14874;SDS011;7529;48.170;17.138;2022-12-10T20:54:37;42.03;;;39.08;;
14874;SDS011;7529;48.170;17.138;2022-12-10T20:58:48;45.85;;;42.90;;
14874;SDS011;7529;48.170;17.138;2022-12-10T21:03:00;39.33;;;36.67;;
14874;SDS011;7529;48.170;17.138;2022-12-10T21:07:12;39.20;;;36.83;;
14874;SDS011;7529;48.170;17.138;2022-12-10T21:11:32;41.22;;;38.33;;
14874;SDS011;7529;48.170;17.138;2022-12-10T21:15:44;35.67;;;33.38;;
14874;SDS011;7529;48.170;17.138;2022-12-10T21:19:57;35.50;;;33.20;;
14874;SDS011;7529;48.170;17.138;2022-12-10T21:24:09;33.88;;;31.48;;
14874;SDS011;7529;48.170;17.138;2022-12-10T21:28:21;33.63;;;31.73;;
14874;SDS011;7529;48.170;17.138;2022-12-10T21:32:34;33.25;;;31.00;;
14874;SDS011;7529;48.170;17.138;2022-12-10T21:36:45;31.95;;;29.77;;
14874;SDS011;7529;48.170;17.138;2022-12-10T21:40:57;34.97;;;32.58;;
14874;SDS011;7529;48.170;17.138;2022-12-10T21:45:09;32.63;;;30.55;;
14874;SDS011;7529;48.170;17.138;2022-12-10T21:49:20;32.50;;;30.50;;
14874;SDS011;7529;48.170;17.138;2022-12-10T21:53:32;33.42;;;30.92;;
14874;SDS011;7529;48.170;17.138;2022-12-10T21:57:43;35.17;;;33.00;;
14874;SDS011;7529;48.170;17.138;2022-12-10T22:01:56;33.35;;;31.25;;
14874;SDS011;7529;48.170;17.138;2022-12-10T22:06:08;34.70;;;32.40;;
14874;SDS011;7529;48.170;17.138;2022-12-10T22:10:20;34.03;;;31.73;;
14874;SDS011;7529;48.170;17.138;2022-12-10T22:14:31;34.88;;;32.65;;
14874;SDS011;7529;48.170;17.138;2022-12-10T22:18:43;33.97;;;31.85;;
14874;SDS011;7529;48.170;17.138;2022-12-10T22:22:54;34.55;;;32.25;;
14874;SDS011;7529;48.170;17.138;2022-12-10T22:27:06;37.42;;;35.10;;
14874;SDS011;7529;48.170;17.138;2022-12-10T22:31:18;35.40;;;33.08;;
14874;SDS011;7529;48.170;17.138;2022-12-10T22:35:29;37.97;;;35.67;;
14874;SDS011;7529;48.170;17.138;2022-12-10T22:39:41;37.60;;;35.15;;
14874;SDS011;7529;48.170;17.138;2022-12-10T22:43:53;31.83;;;29.65;;
14874;SDS011;7529;48.170;17.138;2022-12-10T22:48:05;38.30;;;35.80;;
14874;SDS011;7529;48.170;17.138;2022-12-10T22:52:17;37.35;;;34.60;;
14874;SDS011;7529;48.170;17.138;2022-12-10T22:56:28;41.25;;;38.28;;
14874;SDS011;7529;48.170;17.138;2022-12-10T23:00:40;37.20;;;34.70;;
14874;SDS011;7529;48.170;17.138;2022-12-10T23:04:55;37.33;;;34.90;;
14874;SDS011;7529;48.170;17.138;2022-12-10T23:09:06;40.53;;;38.08;;
14874;SDS011;7529;48.170;17.138;2022-12-10T23:13:18;36.88;;;34.42;;
14874;SDS011;7529;48.170;17.138;2022-12-10T23:17:32;40.90;;;38.40;;
14874;SDS011;7529;48.170;17.138;2022-12-10T23:21:43;36.47;;;34.30;;
14874;SDS011;7529;48.170;17.138;2022-12-10T23:25:55;37.85;;;34.97;;
14874;SDS011;7529;48.170;17.138;2022-12-10T23:30:11;38.25;;;35.75;;
14874;SDS011;7529;48.170;17.138;2022-12-10T23:34:22;38.88;;;36.28;;
14874;SDS011;7529;48.170;17.138;2022-12-10T23:38:34;36.50;;;34.10;;
14874;SDS011;7529;48.170;17.138;2022-12-10T23:42:47;41.72;;;38.97;;
14874;SDS011;7529;48.170;17.138;2022-12-10T23:46:58;38.70;;;36.17;;
14874;SDS011;7529;48.170;17.138;2022-12-10T23:51:10;39.88;;;37.38;;
14874;SDS011;7529;48.170;17.138;2022-12-10T23:55:22;39.58;;;36.97;;
14874;SDS011;7529;48.170;17.138;2022-12-10T23:59:34;36.22;;;33.92;;
